Time;durP1;ratioP1;P1;durP2;ratioP2;P2;SDS_P1;SDS_P2;PMS_P1;PMS_P2;Temp;Humidity;BMP_temperature;BMP_pressure;BME280_temperature;BME280_humidity;BME280_pressure;Samples;Min_cycle;Max_cycle;Signal;HPM_P1;HPM_P2
2024/01/26 00:02:11;;;;;;;43.00;22.38;;;8.50;99.90;;;;;;5110494;28;20515;-69
2024/01/26 00:04:38;;;;;;;39.80;22.50;;;8.50;99.90;;;;;;5110164;28;20089;-69
2024/01/26 00:07:06;;;;;;;42.65;22.67;;;8.50;99.90;;;;;;5109914;28;20104;-70
2024/01/26 00:09:34;;;;;;;37.85;21.27;;;8.60;99.90;;;;;;5110338;28;20078;-69
2024/01/26 00:12:01;;;;;;;42.75;22.38;;;8.60;99.90;;;;;;5110488;28;20507;-70
2024/01/26 00:14:28;;;;;;;40.83;22.25;;;8.60;99.90;;;;;;5109462;28;20047;-70
2024/01/26 00:16:55;;;;;;;45.50;22.50;;;8.60;99.90;;;;;;5110505;28;20051;-70
2024/01/26 00:19:21;;;;;;;45.17;22.88;;;8.60;99.90;;;;;;5088599;28;20479;-69
2024/01/26 00:21:48;;;;;;;39.95;22.52;;;8.70;99.90;;;;;;5090574;28;20048;-70
2024/01/26 00:24:15;;;;;;;44.67;23.20;;;8.70;99.90;;;;;;5090970;28;20048;-69
2024/01/26 00:26:43;;;;;;;42.28;22.85;;;8.70;99.90;;;;;;5092311;28;20553;-69
2024/01/26 00:29:10;;;;;;;44.47;23.83;;;8.70;99.90;;;;;;5094084;28;20089;-70
2024/01/26 00:31:37;;;;;;;42.80;23.45;;;8.70;99.90;;;;;;5094679;28;20090;-70
2024/01/26 00:34:04;;;;;;;39.75;22.75;;;8.70;99.90;;;;;;5094714;28;20056;-70
2024/01/26 00:36:31;;;;;;;41.88;23.50;;;8.70;99.90;;;;;;5106668;28;20437;-71
2024/01/26 00:38:58;;;;;;;44.78;23.88;;;8.80;99.90;;;;;;5113403;28;20048;-71
2024/01/26 00:41:25;;;;;;;45.00;23.92;;;8.90;99.90;;;;;;5113650;28;20047;-71
2024/01/26 00:43:53;;;;;;;46.72;25.20;;;8.90;99.90;;;;;;5112799;28;20051;-70
2024/01/26 00:46:20;;;;;;;42.58;24.88;;;8.90;99.90;;;;;;5113561;28;20075;-70
2024/01/26 00:48:47;;;;;;;43.08;22.27;;;8.90;99.90;;;;;;5113190;28;20445;-70
2024/01/26 00:51:14;;;;;;;40.22;23.42;;;8.90;99.90;;;;;;5113227;28;20560;-70
2024/01/26 00:53:41;;;;;;;39.10;22.42;;;8.90;99.90;;;;;;5113407;28;20048;-70
2024/01/26 00:56:08;;;;;;;41.53;23.42;;;9.00;99.90;;;;;;5134998;27;20110;-69
2024/01/26 00:58:35;;;;;;;42.45;21.67;;;9.00;99.90;;;;;;5155241;27;20474;-69
2024/01/26 01:01:03;;;;;;;38.70;22.70;;;9.00;99.90;;;;;;5136548;27;20054;-69
2024/01/26 01:03:31;;;;;;;39.22;20.95;;;9.00;99.90;;;;;;5135911;27;20134;-69
2024/01/26 01:05:58;;;;;;;36.15;21.08;;;9.30;99.90;;;;;;5136378;27;20091;-69
2024/01/26 01:08:24;;;;;;;40.13;22.35;;;9.10;99.90;;;;;;5136730;27;20046;-69
2024/01/26 01:10:51;;;;;;;34.67;21.35;;;9.10;99.90;;;;;;5136067;27;20042;-69
2024/01/26 01:13:18;;;;;;;37.75;21.92;;;9.10;99.90;;;;;;5115066;27;20047;-70
2024/01/26 01:15:45;;;;;;;34.75;22.35;;;9.10;99.90;;;;;;5117011;27;20398;-69
2024/01/26 01:18:13;;;;;;;42.78;24.60;;;9.10;99.90;;;;;;5099491;27;20399;-69
2024/01/26 01:20:40;;;;;;;40.38;21.85;;;9.30;99.90;;;;;;5098113;27;20051;-69
2024/01/26 01:23:08;;;;;;;38.85;21.88;;;9.20;99.90;;;;;;5099160;27;20074;-69
2024/01/26 01:25:36;;;;;;;37.00;21.38;;;9.20;99.90;;;;;;5099264;27;20062;-69
2024/01/26 01:28:03;;;;;;;36.70;20.92;;;9.30;99.90;;;;;;5097780;27;20044;-70
2024/01/26 01:30:30;;;;;;;28.00;17.83;;;9.20;99.90;;;;;;5098959;27;20078;-70
2024/01/26 01:32:57;;;;;;;27.27;16.35;;;9.20;99.90;;;;;;5096919;27;20043;-70
2024/01/26 01:35:25;;;;;;;29.98;18.52;;;9.20;99.90;;;;;;5098431;27;20051;-70
2024/01/26 01:37:52;;;;;;;25.15;16.00;;;9.30;99.90;;;;;;5098602;27;20051;-70
2024/01/26 01:40:19;;;;;;;28.98;16.38;;;9.20;99.90;;;;;;5097326;27;20112;-71
2024/01/26 01:42:46;;;;;;;27.05;16.02;;;9.20;99.90;;;;;;5098861;27;20048;-71
2024/01/26 01:45:14;;;;;;;29.30;16.38;;;9.40;99.90;;;;;;5096808;27;20537;-71
2024/01/26 01:47:42;;;;;;;25.70;15.90;;;9.30;99.90;;;;;;5098084;27;20059;-70
2024/01/26 01:50:09;;;;;;;26.45;15.70;;;9.30;99.90;;;;;;5098968;27;20074;-71
2024/01/26 01:52:40;;;;;;;25.50;15.45;;;9.40;99.90;;;;;;5096783;27;20052;-71
2024/01/26 01:55:09;;;;;;;25.88;15.95;;;9.30;99.90;;;;;;5097476;27;20139;-70
2024/01/26 01:57:39;;;;;;;24.55;15.80;;;9.30;99.90;;;;;;5097971;27;20055;-71
2024/01/26 02:00:15;;;;;;;26.43;15.90;;;9.40;99.90;;;;;;5114178;27;20551;-71
2024/01/26 02:02:44;;;;;;;27.65;15.88;;;9.40;99.90;;;;;;5116296;27;20046;-71
2024/01/26 02:05:11;;;;;;;19.92;14.52;;;9.40;99.90;;;;;;5099015;27;20075;-70
2024/01/26 02:07:39;;;;;;;22.00;15.30;;;9.50;99.90;;;;;;5096996;27;20050;-70
2024/01/26 02:10:07;;;;;;;20.15;14.90;;;9.50;99.90;;;;;;5098368;27;20125;-71
2024/01/26 02:12:34;;;;;;;19.85;14.52;;;9.50;99.90;;;;;;5135115;27;20074;-69
2024/01/26 02:15:02;;;;;;;20.83;15.05;;;9.50;99.90;;;;;;5134450;27;20495;-69
2024/01/26 02:17:33;;;;;;;20.80;14.43;;;9.50;99.90;;;;;;5135342;27;20058;-69
2024/01/26 02:20:01;;;;;;;19.92;14.27;;;9.50;99.90;;;;;;5113282;27;20047;-69
2024/01/26 02:22:27;;;;;;;19.98;14.02;;;9.50;99.90;;;;;;5096730;27;20123;-70
2024/01/26 02:24:56;;;;;;;20.40;14.82;;;9.50;99.90;;;;;;5104578;27;20051;-70
2024/01/26 02:27:23;;;;;;;23.05;15.38;;;9.50;99.90;;;;;;5114696;27;20096;-70
2024/01/26 02:29:50;;;;;;;22.92;15.68;;;9.50;99.90;;;;;;5097818;27;20441;-69
2024/01/26 02:32:17;;;;;;;22.92;15.38;;;9.50;99.90;;;;;;5098394;27;20040;-69
2024/01/26 02:34:44;;;;;;;22.00;15.35;;;9.50;99.90;;;;;;5096829;27;20437;-69
2024/01/26 02:37:11;;;;;;;24.88;16.88;;;9.60;99.90;;;;;;5097835;27;20059;-69
2024/01/26 02:39:38;;;;;;;21.98;14.75;;;9.70;99.90;;;;;;5096518;27;20043;-70
2024/01/26 02:42:06;;;;;;;20.13;14.23;;;9.60;99.90;;;;;;5096947;27;20101;-69
2024/01/26 02:44:33;;;;;;;22.27;16.27;;;9.60;99.90;;;;;;5115164;27;20047;-69
2024/01/26 02:47:00;;;;;;;21.85;14.60;;;9.60;99.90;;;;;;5115246;27;20047;-69
2024/01/26 02:49:27;;;;;;;22.90;14.88;;;9.50;99.90;;;;;;5114118;28;20039;-69
2024/01/26 02:51:54;;;;;;;22.55;13.75;;;9.60;99.90;;;;;;5115055;27;20704;-69
2024/01/26 02:54:21;;;;;;;20.88;14.77;;;9.60;99.90;;;;;;5115404;27;20387;-70
2024/01/26 02:56:48;;;;;;;20.88;15.52;;;9.60;99.90;;;;;;5114134;27;20059;-69
2024/01/26 02:59:16;;;;;;;21.90;15.18;;;9.60;99.90;;;;;;5114858;27;20043;-69
2024/01/26 03:01:43;;;;;;;19.38;14.10;;;9.60;99.90;;;;;;5115131;27;20103;-69
2024/01/26 03:04:10;;;;;;;21.98;15.57;;;9.60;99.90;;;;;;5114578;27;20059;-69
2024/01/26 03:06:37;;;;;;;21.42;14.20;;;9.60;99.90;;;;;;5113176;27;20051;-69
2024/01/26 03:09:04;;;;;;;19.95;14.00;;;9.60;99.90;;;;;;5095986;27;20040;-69
2024/01/26 03:11:38;;;;;;;20.10;14.80;;;9.60;99.90;;;;;;5095998;27;20054;-70
2024/01/26 03:14:05;;;;;;;25.83;15.90;;;9.60;99.90;;;;;;5114080;27;20488;-69
2024/01/26 03:16:35;;;;;;;22.75;15.23;;;9.60;99.90;;;;;;5094999;27;20078;-69
2024/01/26 03:19:02;;;;;;;22.58;15.15;;;9.70;99.90;;;;;;5095753;27;20043;-69
2024/01/26 03:21:29;;;;;;;22.75;15.15;;;9.60;99.90;;;;;;5096701;27;20554;-69
2024/01/26 03:23:56;;;;;;;24.20;15.85;;;9.70;99.90;;;;;;5112012;27;20551;-69
2024/01/26 03:26:23;;;;;;;23.05;16.77;;;9.60;99.90;;;;;;5114607;27;20066;-69
2024/01/26 03:28:51;;;;;;;23.50;15.13;;;9.60;99.90;;;;;;5114545;28;20058;-69
2024/01/26 03:31:18;;;;;;;21.35;14.68;;;9.70;99.90;;;;;;5113902;28;20050;-69
2024/01/26 03:33:47;;;;;;;21.48;14.70;;;9.70;99.90;;;;;;5114567;28;20084;-69
2024/01/26 03:36:14;;;;;;;22.98;14.95;;;9.70;99.90;;;;;;5112866;28;20043;-68
2024/01/26 03:38:42;;;;;;;22.25;15.48;;;9.70;99.90;;;;;;5113749;28;20126;-68
2024/01/26 03:41:09;;;;;;;22.15;13.93;;;9.70;99.90;;;;;;5114571;28;20055;-69
2024/01/26 03:43:36;;;;;;;22.35;14.45;;;9.80;99.90;;;;;;5114319;28;20047;-69
2024/01/26 03:46:03;;;;;;;21.65;14.68;;;9.80;99.90;;;;;;5113941;28;20100;-70
2024/01/26 03:48:30;;;;;;;23.63;14.95;;;9.70;99.90;;;;;;5114509;28;20051;-70
2024/01/26 03:50:58;;;;;;;19.85;13.05;;;9.70;99.90;;;;;;5114292;28;20571;-70
2024/01/26 03:53:25;;;;;;;22.88;14.82;;;9.70;99.90;;;;;;5114011;27;20101;-69
2024/01/26 03:55:53;;;;;;;21.25;13.85;;;9.70;99.90;;;;;;5108641;28;20120;-70
2024/01/26 03:58:20;;;;;;;23.67;15.55;;;9.70;99.90;;;;;;5111056;28;20414;-70
2024/01/26 04:00:47;;;;;;;24.27;14.68;;;9.70;99.90;;;;;;5110394;28;20043;-70
2024/01/26 04:03:14;;;;;;;22.77;13.82;;;9.70;99.90;;;;;;5114975;28;20050;-70
2024/01/26 04:05:41;;;;;;;21.40;13.60;;;9.70;99.90;;;;;;5114613;28;20100;-69
2024/01/26 04:08:11;;;;;;;21.35;13.10;;;9.80;99.90;;;;;;5112692;28;20070;-70
2024/01/26 04:10:38;;;;;;;23.65;14.40;;;9.70;99.90;;;;;;5114591;28;20040;-70
2024/01/26 04:13:04;;;;;;;23.48;14.55;;;9.70;99.90;;;;;;5114292;28;20047;-70
2024/01/26 04:15:31;;;;;;;21.65;13.77;;;9.70;99.90;;;;;;5114864;28;20547;-70
2024/01/26 04:17:58;;;;;;;21.67;13.85;;;9.70;99.90;;;;;;5114769;28;20112;-70
2024/01/26 04:20:25;;;;;;;25.63;15.25;;;9.70;99.90;;;;;;5111843;28;20043;-70
2024/01/26 04:22:52;;;;;;;22.42;14.38;;;9.70;99.90;;;;;;5114699;28;20052;-70
2024/01/26 04:25:20;;;;;;;22.00;14.40;;;9.70;99.90;;;;;;5114772;28;20044;-70
2024/01/26 04:27:47;;;;;;;25.10;15.15;;;9.70;99.90;;;;;;5113952;28;20548;-70
2024/01/26 04:30:15;;;;;;;20.40;12.93;;;9.70;99.90;;;;;;5114479;28;20441;-70
2024/01/26 04:32:42;;;;;;;23.20;14.77;;;9.70;99.90;;;;;;5112253;28;20047;-70
2024/01/26 04:35:11;;;;;;;23.48;13.55;;;9.80;99.90;;;;;;5114037;28;21034;-70
2024/01/26 04:37:38;;;;;;;23.23;15.15;;;9.90;99.90;;;;;;5114372;28;20152;-70
2024/01/26 04:40:06;;;;;;;29.15;16.13;;;9.90;99.90;;;;;;5112143;28;20043;-70
2024/01/26 04:42:34;;;;;;;23.45;15.73;;;9.80;99.90;;;;;;5113738;28;20076;-69
2024/01/26 04:45:01;;;;;;;23.98;15.55;;;9.80;99.90;;;;;;5114441;28;20096;-69
2024/01/26 04:47:28;;;;;;;20.52;13.77;;;9.90;99.90;;;;;;5111742;28;20043;-70
2024/01/26 04:49:55;;;;;;;23.05;14.48;;;9.90;99.90;;;;;;5113762;28;20096;-69
2024/01/26 04:52:22;;;;;;;23.05;13.00;;;9.90;99.90;;;;;;5114221;28;20414;-70
2024/01/26 04:54:49;;;;;;;23.58;13.45;;;9.90;99.90;;;;;;5114139;28;20059;-70
2024/01/26 04:57:15;;;;;;;21.35;13.02;;;10.00;99.90;;;;;;5113384;28;20059;-69
2024/01/26 04:59:44;;;;;;;20.10;12.10;;;9.90;99.90;;;;;;5113859;28;20104;-69
2024/01/26 05:02:11;;;;;;;20.60;13.48;;;10.00;99.90;;;;;;5113486;28;20055;-69
2024/01/26 05:04:37;;;;;;;22.20;12.60;;;10.10;99.90;;;;;;5111758;28;20052;-69
2024/01/26 05:07:05;;;;;;;18.85;13.00;;;10.20;99.90;;;;;;5113861;28;20047;-68
2024/01/26 05:09:31;;;;;;;18.02;12.50;;;10.10;99.90;;;;;;5113078;28;20040;-69
2024/01/26 05:11:58;;;;;;;23.17;12.68;;;10.20;99.90;;;;;;5113763;28;20051;-70
2024/01/26 05:14:25;;;;;;;25.30;12.68;;;10.20;99.90;;;;;;5112786;28;20487;-69
2024/01/26 05:16:53;;;;;;;21.95;12.77;;;10.20;99.90;;;;;;5113181;28;20399;-69
2024/01/26 05:19:20;;;;;;;19.65;12.43;;;10.30;99.90;;;;;;5113328;28;20044;-70
2024/01/26 05:21:47;;;;;;;19.95;13.05;;;10.30;99.90;;;;;;5113635;28;20051;-69
2024/01/26 05:24:14;;;;;;;18.92;12.65;;;10.30;99.90;;;;;;5111679;28;20052;-69
2024/01/26 05:26:41;;;;;;;18.08;11.82;;;10.30;99.90;;;;;;5109581;28;20491;-68
2024/01/26 05:29:08;;;;;;;20.38;12.55;;;10.40;99.90;;;;;;5112557;28;20461;-67
2024/01/26 05:31:35;;;;;;;16.60;13.07;;;10.30;99.90;;;;;;5113510;28;20113;-69
2024/01/26 05:34:03;;;;;;;23.60;14.13;;;10.30;99.90;;;;;;5109924;28;20502;-69
2024/01/26 05:36:30;;;;;;;19.77;14.07;;;10.30;99.90;;;;;;5112414;28;20064;-70
2024/01/26 05:38:57;;;;;;;20.70;14.57;;;10.30;99.90;;;;;;5110108;28;20039;-69
2024/01/26 05:41:24;;;;;;;19.67;13.70;;;10.20;99.90;;;;;;5111125;28;20059;-69
2024/01/26 05:43:50;;;;;;;18.90;12.65;;;10.20;99.90;;;;;;5111763;28;20051;-69
2024/01/26 05:46:17;;;;;;;18.25;13.00;;;10.20;99.90;;;;;;5109803;28;20048;-69
2024/01/26 05:48:45;;;;;;;20.60;13.63;;;10.20;99.90;;;;;;5112440;28;20074;-68
2024/01/26 05:51:14;;;;;;;17.27;12.15;;;10.20;99.90;;;;;;5110504;28;20067;-69
2024/01/26 05:53:41;;;;;;;19.50;14.52;;;10.30;99.90;;;;;;5112412;28;20047;-69
2024/01/26 05:56:08;;;;;;;20.58;14.90;;;10.20;99.90;;;;;;5109163;28;20109;-69
2024/01/26 05:58:34;;;;;;;21.92;14.00;;;10.20;99.90;;;;;;5109263;28;20457;-69
2024/01/26 06:01:01;;;;;;;20.00;14.52;;;10.20;99.90;;;;;;5109714;28;20051;-67
2024/01/26 06:03:28;;;;;;;17.95;13.32;;;10.20;99.90;;;;;;5108241;28;20048;-68
2024/01/26 06:05:56;;;;;;;26.05;14.77;;;10.20;99.90;;;;;;5109775;28;20044;-68
2024/01/26 06:08:25;;;;;;;17.42;13.02;;;10.20;99.90;;;;;;5108102;28;20044;-69
2024/01/26 06:10:52;;;;;;;19.20;14.73;;;10.20;99.90;;;;;;5110905;28;20039;-67
2024/01/26 06:13:19;;;;;;;19.42;14.52;;;10.40;99.90;;;;;;5110005;28;20051;-68
2024/01/26 06:15:47;;;;;;;23.15;14.52;;;10.20;99.90;;;;;;5111743;28;20051;-68
2024/01/26 06:18:13;;;;;;;21.90;14.35;;;10.30;99.90;;;;;;5110941;28;20043;-69
2024/01/26 06:20:40;;;;;;;17.50;13.38;;;10.30;99.90;;;;;;5110094;28;20108;-68
2024/01/26 06:23:07;;;;;;;19.25;13.57;;;10.20;99.90;;;;;;5109511;28;20483;-68
2024/01/26 06:25:36;;;;;;;17.50;13.43;;;10.30;99.90;;;;;;5107131;28;20055;-68
2024/01/26 06:28:03;;;;;;;20.05;14.20;;;10.30;99.90;;;;;;5110809;28;20051;-68
2024/01/26 06:30:30;;;;;;;21.80;15.15;;;10.30;99.90;;;;;;5109646;28;20056;-68
2024/01/26 06:32:56;;;;;;;21.08;14.38;;;10.30;99.90;;;;;;5107011;28;20056;-68
2024/01/26 06:35:23;;;;;;;21.33;15.13;;;10.30;99.90;;;;;;5111142;28;20043;-69
2024/01/26 06:37:50;;;;;;;20.27;15.02;;;10.30;99.90;;;;;;5110393;28;20108;-69
2024/01/26 06:40:17;;;;;;;19.77;14.48;;;10.40;99.90;;;;;;5110571;28;20043;-69
2024/01/26 06:42:45;;;;;;;19.08;14.20;;;10.40;99.90;;;;;;5106758;28;20039;-69
2024/01/26 06:45:14;;;;;;;21.60;15.05;;;10.30;99.90;;;;;;5100562;28;20112;-69
2024/01/26 06:47:41;;;;;;;19.48;13.93;;;10.40;99.90;;;;;;5094926;28;20138;-69
2024/01/26 06:50:11;;;;;;;22.90;13.35;;;10.30;99.90;;;;;;5099561;28;20043;-69
2024/01/26 06:52:38;;;;;;;19.35;13.93;;;10.30;99.90;;;;;;5097612;28;20083;-68
2024/01/26 06:55:05;;;;;;;18.95;12.32;;;10.30;99.90;;;;;;5100103;27;20052;-68
2024/01/26 06:57:32;;;;;;;17.35;12.65;;;10.30;99.90;;;;;;5103683;27;20047;-69
2024/01/26 07:00:01;;;;;;;17.85;12.15;;;10.30;99.90;;;;;;5102313;27;20286;-69
2024/01/26 07:02:28;;;;;;;19.60;12.23;;;10.30;99.90;;;;;;5097431;27;20055;-69
2024/01/26 07:04:55;;;;;;;18.88;11.27;;;10.30;99.90;;;;;;5118156;27;20050;-68
2024/01/26 07:07:21;;;;;;;16.83;11.18;;;10.30;99.90;;;;;;5110875;27;20050;-68
2024/01/26 07:09:48;;;;;;;17.60;10.27;;;10.30;99.90;;;;;;5111862;27;20047;-69
2024/01/26 07:12:15;;;;;;;16.98;10.13;;;10.30;99.90;;;;;;5096322;27;20108;-69
2024/01/26 07:14:42;;;;;;;13.18;10.60;;;10.30;99.90;;;;;;5109644;28;20369;-69
2024/01/26 07:17:10;;;;;;;15.63;10.70;;;10.30;99.90;;;;;;5110728;27;20056;-69
2024/01/26 07:19:37;;;;;;;14.30;10.02;;;10.40;99.90;;;;;;5109391;27;20043;-68
2024/01/26 07:22:05;;;;;;;14.02;10.02;;;10.50;99.90;;;;;;5108333;27;20051;-68
2024/01/26 07:24:31;;;;;;;14.73;10.60;;;10.40;99.90;;;;;;5132905;27;20050;-68
2024/01/26 07:26:58;;;;;;;12.32;9.57;;;10.40;99.90;;;;;;5133996;27;20486;-69
2024/01/26 07:29:25;;;;;;;13.55;9.18;;;10.40;99.90;;;;;;5133239;27;20435;-69
2024/01/26 07:31:52;;;;;;;12.77;8.52;;;10.40;99.90;;;;;;5102777;27;20391;-69
2024/01/26 07:34:20;;;;;;;10.75;7.95;;;10.30;99.90;;;;;;5097121;27;20503;-69
2024/01/26 07:36:47;;;;;;;12.90;7.93;;;10.40;99.90;;;;;;5097013;27;20043;-69
2024/01/26 07:39:15;;;;;;;11.30;8.27;;;10.40;99.90;;;;;;5099413;27;20112;-69
2024/01/26 07:41:42;;;;;;;10.68;8.35;;;10.40;99.90;;;;;;5100027;27;20469;-69
2024/01/26 07:44:09;;;;;;;12.88;8.45;;;10.40;99.90;;;;;;5115888;27;20441;-69
2024/01/26 07:46:38;;;;;;;10.93;7.88;;;10.40;99.90;;;;;;5099933;27;20040;-69
2024/01/26 07:49:05;;;;;;;10.45;7.88;;;10.40;99.90;;;;;;5104275;27;20108;-69
2024/01/26 07:51:34;;;;;;;9.82;7.25;;;10.40;99.90;;;;;;5099004;27;20372;-69
2024/01/26 07:54:00;;;;;;;11.32;8.13;;;10.50;99.90;;;;;;5115707;27;20111;-69
2024/01/26 07:56:27;;;;;;;10.75;8.10;;;10.40;99.90;;;;;;5099732;27;20055;-69
2024/01/26 07:58:54;;;;;;;10.52;7.60;;;10.30;99.90;;;;;;5113896;27;20091;-69
2024/01/26 08:01:21;;;;;;;9.63;6.43;;;10.40;99.90;;;;;;5116441;27;20039;-69
2024/01/26 08:03:48;;;;;;;12.57;8.13;;;10.40;99.90;;;;;;5117211;27;20043;-69
2024/01/26 08:06:15;;;;;;;9.82;7.50;;;10.40;99.90;;;;;;5115170;27;20058;-70
2024/01/26 08:08:43;;;;;;;10.82;7.07;;;10.50;99.90;;;;;;5119792;27;20043;-69
2024/01/26 08:11:10;;;;;;;7.35;5.80;;;10.40;99.90;;;;;;5115105;27;20051;-70
2024/01/26 08:13:37;;;;;;;12.00;6.10;;;10.40;99.90;;;;;;5116755;27;20039;-70
2024/01/26 08:16:04;;;;;;;8.00;6.15;;;10.40;99.90;;;;;;5114294;27;20104;-69
2024/01/26 08:18:31;;;;;;;8.05;5.97;;;10.40;99.90;;;;;;5117235;27;20092;-69
2024/01/26 08:20:58;;;;;;;7.05;5.88;;;10.40;99.90;;;;;;5114697;27;20040;-69
2024/01/26 08:23:25;;;;;;;6.10;5.18;;;10.50;99.90;;;;;;5117335;27;20051;-68
2024/01/26 08:25:53;;;;;;;7.03;4.60;;;10.50;99.90;;;;;;5117289;27;20047;-70
2024/01/26 08:28:20;;;;;;;5.68;4.60;;;10.40;99.90;;;;;;5098631;27;20494;-70
2024/01/26 08:30:48;;;;;;;4.22;3.83;;;10.40;99.90;;;;;;5100484;27;20406;-70
2024/01/26 08:33:15;;;;;;;4.97;4.32;;;10.40;99.90;;;;;;5098689;27;20112;-70
2024/01/26 08:35:41;;;;;;;4.80;4.30;;;10.30;99.90;;;;;;5099048;27;20508;-69
2024/01/26 08:38:09;;;;;;;5.00;4.35;;;10.30;99.90;;;;;;5107885;27;20054;-69
2024/01/26 08:40:35;;;;;;;5.15;4.28;;;10.30;99.90;;;;;;5135952;27;20482;-69
2024/01/26 08:43:04;;;;;;;6.75;5.00;;;10.30;99.90;;;;;;5136541;27;20051;-69
2024/01/26 08:45:31;;;;;;;14.70;6.20;;;10.30;99.90;;;;;;5136493;27;20046;-69
2024/01/26 08:47:58;;;;;;;9.85;6.07;;;10.30;99.90;;;;;;5111975;27;20051;-69
2024/01/26 08:50:25;;;;;;;8.98;5.97;;;10.30;99.90;;;;;;5099040;27;20050;-68
2024/01/26 08:52:52;;;;;;;9.35;6.45;;;10.30;99.90;;;;;;5115032;27;20043;-69
2024/01/26 08:55:18;;;;;;;12.35;6.43;;;10.20;99.90;;;;;;5098592;27;20457;-69
2024/01/26 08:57:48;;;;;;;10.80;6.15;;;10.30;99.90;;;;;;5114469;27;20054;-69
2024/01/26 09:00:19;;;;;;;14.30;6.68;;;10.20;99.90;;;;;;5116933;27;20073;-68
2024/01/26 09:02:46;;;;;;;9.27;6.63;;;10.20;99.90;;;;;;5116634;27;20410;-69
2024/01/26 09:05:13;;;;;;;14.98;7.30;;;10.30;99.90;;;;;;5098273;27;20054;-69
2024/01/26 09:07:40;;;;;;;12.35;7.10;;;10.20;99.90;;;;;;5098306;27;20044;-70
2024/01/26 09:10:07;;;;;;;19.33;6.18;;;10.20;99.90;;;;;;5132389;27;20096;-69
2024/01/26 09:12:35;;;;;;;12.98;5.32;;;10.20;99.90;;;;;;5116920;27;20436;-69
2024/01/26 09:15:02;;;;;;;7.47;4.22;;;10.20;99.90;;;;;;5099835;27;20097;-69
2024/01/26 09:17:30;;;;;;;9.38;3.80;;;10.00;99.90;;;;;;5114471;27;20047;-69
2024/01/26 09:19:57;;;;;;;6.88;2.70;;;9.80;99.90;;;;;;5098933;27;20077;-69
2024/01/26 09:22:24;;;;;;;7.90;3.45;;;9.50;99.90;;;;;;5098774;27;20043;-69
2024/01/26 09:24:51;;;;;;;6.10;2.95;;;9.20;99.90;;;;;;5098553;27;20456;-69
2024/01/26 09:27:20;;;;;;;8.40;2.33;;;9.10;99.90;;;;;;5114521;27;20043;-69
2024/01/26 09:29:47;;;;;;;6.85;2.13;;;9.00;99.90;;;;;;5115835;27;20104;-69
2024/01/26 09:32:14;;;;;;;5.95;2.55;;;8.90;99.90;;;;;;5098684;27;20036;-68
2024/01/26 09:34:44;;;;;;;3.75;2.38;;;8.80;99.90;;;;;;5097523;27;20055;-69
2024/01/26 09:37:11;;;;;;;8.25;2.65;;;8.70;99.90;;;;;;5097495;27;20055;-69
2024/01/26 09:39:38;;;;;;;5.55;2.53;;;8.70;99.90;;;;;;5114377;27;20507;-69
2024/01/26 09:42:05;;;;;;;5.80;3.10;;;8.60;99.90;;;;;;5097910;27;20516;-69
2024/01/26 09:44:32;;;;;;;8.30;2.85;;;8.50;99.90;;;;;;5123214;27;20112;-69
2024/01/26 09:47:02;;;;;;;13.48;3.10;;;8.50;99.90;;;;;;5097197;27;20088;-68
2024/01/26 09:49:30;;;;;;;5.75;2.72;;;8.40;99.90;;;;;;5097663;27;20043;-69
2024/01/26 09:51:58;;;;;;;11.60;3.83;;;8.40;99.90;;;;;;5112891;27;20075;-69
2024/01/26 09:54:27;;;;;;;14.50;3.85;;;8.40;99.90;;;;;;5097500;27;20499;-69
2024/01/26 09:56:55;;;;;;;13.75;4.03;;;8.30;99.90;;;;;;5100420;27;20055;-69
2024/01/26 09:59:22;;;;;;;15.18;3.40;;;8.20;99.90;;;;;;5114473;27;20047;-69
2024/01/26 10:01:50;;;;;;;15.93;3.60;;;8.30;99.90;;;;;;5115049;27;20460;-68
2024/01/26 10:04:17;;;;;;;10.88;3.53;;;8.10;99.90;;;;;;5117063;27;20104;-68
2024/01/26 10:06:46;;;;;;;12.55;4.05;;;8.10;99.90;;;;;;5113029;27;20051;-68
2024/01/26 10:09:14;;;;;;;17.10;3.83;;;8.00;99.90;;;;;;5115045;27;20502;-68
2024/01/26 10:11:41;;;;;;;15.45;4.78;;;8.00;99.90;;;;;;5114114;27;20084;-69
2024/01/26 10:14:08;;;;;;;21.08;4.97;;;7.90;99.90;;;;;;5115090;27;20494;-69
2024/01/26 10:16:35;;;;;;;14.77;4.28;;;7.90;99.90;;;;;;5115494;27;20399;-69
2024/01/26 10:19:02;;;;;;;22.52;5.10;;;7.90;99.90;;;;;;5114910;27;20047;-69
2024/01/26 10:21:29;;;;;;;16.55;4.88;;;7.80;99.90;;;;;;5112200;27;20043;-69
2024/01/26 10:23:56;;;;;;;10.48;3.88;;;7.80;99.90;;;;;;5096927;27;20552;-69
2024/01/26 10:26:24;;;;;;;11.90;4.05;;;7.90;99.90;;;;;;5096956;27;20052;-69
2024/01/26 10:28:53;;;;;;;13.40;4.18;;;7.90;99.90;;;;;;5096625;27;20048;-69
2024/01/26 10:31:20;;;;;;;17.83;4.38;;;8.00;99.90;;;;;;5095891;27;20136;-69
2024/01/26 10:33:50;;;;;;;16.02;4.40;;;8.00;99.90;;;;;;5095564;27;20051;-69
2024/01/26 10:36:18;;;;;;;;;;;8.10;99.90;;;;;;5097341;27;20059;-69
2024/01/26 10:38:46;;;;;;;16.30;4.70;;;8.20;99.90;;;;;;5097715;27;19919;-69
2024/01/26 10:41:20;;;;;;;19.20;4.50;;;8.20;99.90;;;;;;5095769;27;20039;-69
2024/01/26 10:43:52;;;;;;;13.93;4.03;;;8.30;99.90;;;;;;5096614;27;20066;-70
2024/01/26 10:46:20;;;;;;;13.23;4.10;;;8.30;99.90;;;;;;5096531;27;20058;-69
2024/01/26 10:48:47;;;;;;;15.50;5.00;;;8.40;99.90;;;;;;5108927;27;20087;-69
2024/01/26 10:51:14;;;;;;;17.10;5.03;;;8.50;99.90;;;;;;5133809;27;20047;-69
2024/01/26 10:53:45;;;;;;;11.07;3.85;;;8.50;99.90;;;;;;5121095;27;20078;-68
2024/01/26 10:56:12;;;;;;;17.63;5.07;;;8.50;99.90;;;;;;5097647;27;20510;-68
2024/01/26 10:58:39;;;;;;;13.02;4.78;;;8.50;99.90;;;;;;5096272;27;20054;-68
2024/01/26 11:01:08;;;;;;;21.40;5.18;;;8.50;99.90;;;;;;5096960;27;20048;-69
2024/01/26 11:03:35;;;;;;;16.00;4.40;;;8.50;99.90;;;;;;5095856;27;20040;-69
2024/01/26 11:06:03;;;;;;;18.80;6.25;;;8.70;99.90;;;;;;5096783;27;20134;-69
2024/01/26 11:08:32;;;;;;;17.08;4.47;;;8.80;99.90;;;;;;5096037;27;20043;-69
2024/01/26 11:10:59;;;;;;;13.52;4.28;;;9.00;99.90;;;;;;5109843;27;20043;-69
2024/01/26 11:13:27;;;;;;;15.00;4.43;;;9.40;99.90;;;;;;5111886;27;20100;-69
2024/01/26 11:16:04;;;;;;;18.48;4.80;;;8.50;99.90;;;;;;5108481;27;20107;-69
2024/01/26 11:18:35;;;;;;;16.80;4.35;;;9.10;99.90;;;;;;5124676;27;20086;-70
2024/01/26 11:21:03;;;;;;;12.85;3.53;;;9.20;99.90;;;;;;5113388;28;20084;-69
2024/01/26 11:23:39;;;;;;;13.10;3.65;;;9.10;99.90;;;;;;5141406;27;20050;-68
2024/01/26 11:26:14;;;;;;;13.98;4.10;;;9.40;99.90;;;;;;5111960;27;20563;-69
2024/01/26 11:28:41;;;;;;;18.25;5.32;;;9.10;99.90;;;;;;5114351;27;20550;-69
2024/01/26 11:31:08;;;;;;;18.15;4.18;;;8.90;99.90;;;;;;5107968;27;20448;-69
2024/01/26 11:33:39;;;;;;;15.80;4.28;;;8.80;99.90;;;;;;5108959;28;20051;-69
2024/01/26 11:36:10;;;;;;;10.25;3.90;;;8.90;99.90;;;;;;5113032;28;20047;-68
2024/01/26 11:38:37;;;;;;;14.15;3.58;;;8.80;99.90;;;;;;5111468;28;20066;-68
2024/01/26 11:41:05;;;;;;;16.92;4.10;;;9.20;99.90;;;;;;5110953;28;20047;-69
2024/01/26 11:43:32;;;;;;;11.15;4.20;;;9.40;99.90;;;;;;5105278;28;20055;-69
2024/01/26 11:45:59;;;;;;;21.98;4.68;;;9.50;99.90;;;;;;5107972;27;20490;-69
2024/01/26 11:48:26;;;;;;;16.13;4.32;;;9.20;99.90;;;;;;5109543;27;20057;-68
2024/01/26 11:50:54;;;;;;;14.85;4.18;;;9.10;99.90;;;;;;5110295;28;20074;-70
2024/01/26 11:53:23;;;;;;;16.95;4.53;;;9.00;99.90;;;;;;5113293;28;20051;-70
2024/01/26 11:55:52;;;;;;;18.70;4.53;;;8.80;99.90;;;;;;5110025;28;20051;-70
2024/01/26 11:58:19;;;;;;;16.17;4.13;;;8.70;99.90;;;;;;5126813;27;20054;-70
2024/01/26 12:00:46;;;;;;;14.05;4.72;;;8.70;99.90;;;;;;5095264;27;20047;-68
2024/01/26 12:03:16;;;;;;;14.20;4.07;;;8.50;99.90;;;;;;5111786;27;20535;-69
2024/01/26 12:05:43;;;;;;;12.60;4.10;;;8.50;99.90;;;;;;5109687;28;20108;-70
2024/01/26 12:08:11;;;;;;;15.27;4.38;;;8.40;99.90;;;;;;5114213;27;20498;-69
2024/01/26 12:10:39;;;;;;;19.52;5.82;;;8.40;99.90;;;;;;5132744;27;20051;-69
2024/01/26 12:13:07;;;;;;;15.23;4.68;;;8.30;99.90;;;;;;5132839;27;20046;-69
2024/01/26 12:15:38;;;;;;;16.40;4.68;;;8.30;99.90;;;;;;5133174;27;20042;-69
2024/01/26 12:18:09;;;;;;;17.17;4.57;;;8.30;99.90;;;;;;5098964;27;20109;-69
2024/01/26 12:20:36;;;;;;;17.35;4.60;;;8.40;99.90;;;;;;5095479;27;20090;-69
2024/01/26 12:23:04;;;;;;;11.68;3.55;;;8.30;99.90;;;;;;5133664;27;20110;-69
2024/01/26 12:25:32;;;;;;;12.57;4.13;;;8.30;99.90;;;;;;5115692;27;20047;-68
2024/01/26 12:28:02;;;;;;;14.05;4.47;;;8.20;99.90;;;;;;5099021;27;20114;-68
2024/01/26 12:30:30;;;;;;;14.18;4.28;;;8.20;99.90;;;;;;5099634;27;20048;-69
2024/01/26 12:33:05;;;;;;;10.00;4.68;;;8.10;99.90;;;;;;5099965;27;20040;-69
2024/01/26 12:35:34;;;;;;;20.98;4.65;;;8.10;99.90;;;;;;5117757;27;20059;-69
2024/01/26 12:38:01;;;;;;;12.52;4.25;;;8.00;99.90;;;;;;5098781;27;20120;-69
2024/01/26 12:40:27;;;;;;;15.25;4.57;;;7.90;99.90;;;;;;5115861;27;20397;-70